Time;durP1;ratioP1;P1;durP2;ratioP2;P2;SDS_P1;SDS_P2;PMS_P1;PMS_P2;Temp;Humidity;BMP_temperature;BMP_pressure;BME280_temperature;BME280_humidity;BME280_pressure;Samples;Min_cycle;Max_cycle;Signal;HPM_P1;HPM_P2
2022/05/30 00:00:42;;;;;;;5.17;1.93;;;13.70;97.40;;;;;;6118709;23;20408;-82
2022/05/30 00:03:09;;;;;;;3.90;2.50;;;13.70;97.40;;;;;;6119506;23;20403;-84
2022/05/30 00:05:41;;;;;;;6.53;2.20;;;13.70;97.30;;;;;;6093870;23;20419;-82
2022/05/30 00:08:08;;;;;;;2.83;2.50;;;13.70;97.40;;;;;;6120882;23;20514;-82
2022/05/30 00:10:35;;;;;;;3.00;1.90;;;13.70;97.40;;;;;;6122864;23;20439;-81
2022/05/30 00:13:01;;;;;;;2.30;1.73;;;13.80;97.60;;;;;;6120963;23;20392;-83
2022/05/30 00:15:32;;;;;;;2.37;2.07;;;13.70;97.60;;;;;;6092930;23;20416;-84
2022/05/30 00:17:59;;;;;;;3.43;2.03;;;13.60;97.40;;;;;;6118185;23;20438;-81
2022/05/30 00:20:26;;;;;;;6.53;2.20;;;13.60;97.60;;;;;;6119563;23;20434;-83
2022/05/30 00:22:52;;;;;;;5.23;2.27;;;13.60;97.50;;;;;;6120726;23;20411;-81
2022/05/30 00:25:19;;;;;;;2.90;2.23;;;13.70;97.40;;;;;;6105888;23;20416;-81
2022/05/30 00:27:46;;;;;;;3.77;1.73;;;13.60;96.90;;;;;;6118263;23;20444;-82
2022/05/30 00:30:17;;;;;;;3.50;2.33;;;13.50;96.90;;;;;;6118154;23;20407;-82
2022/05/30 00:32:44;;;;;;;6.07;2.10;;;13.40;97.00;;;;;;6121490;23;20388;-82
2022/05/30 00:35:12;;;;;;;3.10;1.90;;;13.40;96.90;;;;;;6121029;23;20577;-83
2022/05/30 00:37:39;;;;;;;3.27;2.17;;;13.40;97.00;;;;;;6120916;23;20935;-83
2022/05/30 00:40:07;;;;;;;3.30;1.93;;;13.40;97.00;;;;;;6123888;23;20419;-83
2022/05/30 00:42:34;;;;;;;3.83;2.13;;;13.40;97.00;;;;;;6142188;23;20404;-82
2022/05/30 00:45:01;;;;;;;3.13;2.23;;;13.50;97.20;;;;;;6117962;23;21081;-81
2022/05/30 00:47:27;;;;;;;2.43;2.23;;;13.50;97.10;;;;;;6142719;23;20499;-82
2022/05/30 00:49:55;;;;;;;3.97;1.87;;;13.50;97.10;;;;;;6117003;23;20431;-82
2022/05/30 00:52:31;;;;;;;3.93;2.00;;;13.50;97.10;;;;;;6139912;23;20450;-83
2022/05/30 00:55:05;;;;;;;4.53;4.03;;;13.50;97.10;;;;;;6137148;23;20386;-82
2022/05/30 00:57:33;;;;;;;4.03;2.40;;;13.70;96.80;;;;;;6115034;23;20439;-81
2022/05/30 01:00:07;;;;;;;3.93;2.03;;;13.80;95.80;;;;;;6118864;23;20403;-82
2022/05/30 01:02:35;;;;;;;3.43;1.70;;;13.70;96.00;;;;;;6113039;23;20938;-81
2022/05/30 01:08:05;;;;;;;4.07;2.40;;;13.60;96.50;;;;;;6022790;23;20444;-81
2022/05/30 01:10:33;;;;;;;3.67;2.67;;;13.60;96.60;;;;;;6066727;23;20423;-83
2022/05/30 01:12:59;;;;;;;2.37;2.17;;;13.60;96.60;;;;;;6111779;23;20422;-83
2022/05/30 01:15:29;;;;;;;7.07;2.20;;;13.60;96.30;;;;;;6116551;23;20416;-82
2022/05/30 01:17:59;;;;;;;2.73;2.03;;;13.50;96.40;;;;;;6088741;23;20431;-83
2022/05/30 01:21:04;;;;;;;4.03;3.13;;;13.60;96.50;;;;;;6113640;23;20430;-80
2022/05/30 01:23:59;;;;;;;6.03;2.53;;;13.60;96.60;;;;;;6096150;23;20399;-81
2022/05/30 01:26:55;;;;;;;4.20;1.70;;;13.50;96.60;;;;;;6119063;23;20402;-82
2022/05/30 01:29:30;;;;;;;6.20;2.13;;;13.50;96.90;;;;;;6119851;23;20867;-84
2022/05/30 01:31:57;;;;;;;6.23;2.03;;;13.40;97.10;;;;;;6114876;23;20474;-83
2022/05/30 01:34:26;;;;;;;4.60;2.00;;;13.40;97.20;;;;;;6088068;23;20812;-81
2022/05/30 01:36:54;;;;;;;3.40;2.17;;;13.40;97.40;;;;;;6089249;23;20426;-82
2022/05/30 01:39:21;;;;;;;2.77;2.00;;;13.30;97.60;;;;;;6121365;23;20444;-82
2022/05/30 01:41:47;;;;;;;4.83;2.20;;;13.30;97.90;;;;;;6091632;23;20439;-83
2022/05/30 01:44:14;;;;;;;3.20;2.90;;;13.30;98.10;;;;;;6118038;23;20408;-83
2022/05/30 01:46:41;;;;;;;4.40;2.50;;;13.30;98.20;;;;;;6114608;23;20422;-83
2022/05/30 01:49:08;;;;;;;3.47;2.40;;;13.30;98.20;;;;;;6090249;23;20432;-83
2022/05/30 01:51:35;;;;;;;7.90;2.60;;;13.30;97.90;;;;;;6118221;23;20444;-83
2022/05/30 01:54:02;;;;;;;3.43;1.80;;;13.30;97.40;;;;;;6119500;23;20917;-82
2022/05/30 01:56:29;;;;;;;2.80;1.90;;;13.30;97.20;;;;;;6118495;23;20423;-82
2022/05/30 01:58:55;;;;;;;7.57;2.17;;;13.60;97.00;;;;;;6115944;23;20432;-83
2022/05/30 02:01:26;;;;;;;5.20;2.23;;;13.50;96.70;;;;;;6115552;23;20416;-81
2022/05/30 02:03:54;;;;;;;4.93;1.80;;;13.40;96.70;;;;;;6099094;23;20393;-80
2022/05/30 02:06:23;;;;;;;3.80;2.20;;;13.40;97.10;;;;;;6126136;23;20519;-81
2022/05/30 02:08:50;;;;;;;2.67;2.33;;;13.40;97.00;;;;;;6125814;23;20438;-80
2022/05/30 02:11:18;;;;;;;2.73;1.80;;;13.50;96.80;;;;;;6123365;23;20550;-82
2022/05/30 02:13:45;;;;;;;4.70;2.23;;;13.30;96.80;;;;;;6122565;23;20439;-79
2022/05/30 02:18:59;;;;;;;1.90;1.77;;;13.30;96.90;;;;;;6115702;23;20432;-80
2022/05/30 02:21:27;;;;;;;5.33;2.30;;;13.30;96.70;;;;;;6117702;23;20416;-82
2022/05/30 02:23:53;;;;;;;3.40;2.10;;;13.20;96.70;;;;;;6118435;23;20416;-80
2022/05/30 02:26:20;;;;;;;4.70;1.60;;;13.20;96.80;;;;;;6118134;23;21012;-81
2022/05/30 02:28:48;;;;;;;3.67;2.00;;;13.10;96.90;;;;;;6092655;23;20443;-82
2022/05/30 02:31:15;;;;;;;3.70;2.23;;;13.30;96.90;;;;;;6089334;23;20447;-83
2022/05/30 02:36:40;;;;;;;4.87;2.50;;;13.50;95.60;;;;;;6116714;23;20412;-82
2022/05/30 02:39:13;;;;;;;2.87;2.10;;;13.30;95.70;;;;;;6115121;23;20427;-83
2022/05/30 02:41:41;;;;;;;4.83;2.27;;;13.20;96.20;;;;;;6114957;23;20396;-82
2022/05/30 02:44:08;;;;;;;3.30;2.17;;;13.20;96.10;;;;;;6091022;23;20420;-82
2022/05/30 02:46:38;;;;;;;5.13;2.27;;;13.20;96.30;;;;;;6118691;23;20734;-82
2022/05/30 02:49:05;;;;;;;4.73;1.70;;;13.30;96.20;;;;;;6089012;23;20504;-82
2022/05/30 02:51:32;;;;;;;4.60;1.80;;;13.30;96.10;;;;;;6112920;23;20455;-83
2022/05/30 02:53:59;;;;;;;4.53;2.23;;;13.30;96.10;;;;;;6116650;23;20471;-83
2022/05/30 02:56:26;;;;;;;4.73;1.70;;;13.50;95.80;;;;;;6118528;23;20420;-82
2022/05/30 02:58:53;;;;;;;3.77;2.27;;;13.40;95.60;;;;;;6116672;23;20462;-82
2022/05/30 03:01:20;;;;;;;5.53;2.00;;;13.40;95.80;;;;;;6113208;23;20400;-81
2022/05/30 03:03:46;;;;;;;5.00;2.50;;;13.30;95.70;;;;;;6115916;23;20878;-81
2022/05/30 03:06:13;;;;;;;2.23;1.87;;;13.10;96.00;;;;;;6115552;23;20400;-82
2022/05/30 03:08:40;;;;;;;3.80;2.20;;;13.10;96.50;;;;;;6115789;23;21276;-82
2022/05/30 03:11:07;;;;;;;2.67;1.70;;;13.10;96.80;;;;;;6119971;23;20419;-82
2022/05/30 03:13:34;;;;;;;3.33;2.20;;;13.10;96.80;;;;;;6088043;23;20408;-84
2022/05/30 03:16:01;;;;;;;3.93;2.07;;;13.20;96.60;;;;;;6089647;23;20422;-81
2022/05/30 03:18:28;;;;;;;3.50;2.00;;;13.10;96.70;;;;;;6114380;23;20512;-81
2022/05/30 03:20:55;;;;;;;8.30;2.33;;;13.00;97.00;;;;;;6114491;23;20407;-82
2022/05/30 03:23:22;;;;;;;6.10;2.10;;;12.90;97.20;;;;;;6115020;23;20448;-83
2022/05/30 03:25:49;;;;;;;4.50;2.33;;;12.90;97.40;;;;;;6088139;23;20443;-81
2022/05/30 03:28:16;;;;;;;4.70;2.40;;;13.00;97.30;;;;;;6086583;23;20454;-83
2022/05/30 03:30:44;;;;;;;5.03;2.73;;;13.00;97.30;;;;;;6119013;23;20408;-83
2022/05/30 03:33:10;;;;;;;3.40;2.30;;;13.00;97.40;;;;;;6114746;23;20788;-83
2022/05/30 03:35:38;;;;;;;5.73;2.23;;;13.20;97.40;;;;;;6111463;23;20392;-81
2022/05/30 03:38:05;;;;;;;4.87;2.20;;;13.20;96.90;;;;;;6114177;23;20450;-82
2022/05/30 03:40:32;;;;;;;4.80;2.10;;;13.10;97.00;;;;;;6113910;23;20435;-81
2022/05/30 03:42:59;;;;;;;6.10;2.20;;;13.00;97.10;;;;;;6114597;23;20415;-82
2022/05/30 03:45:25;;;;;;;5.87;2.40;;;13.10;97.10;;;;;;6113708;23;20423;-81
2022/05/30 03:47:52;;;;;;;6.40;3.10;;;13.10;97.00;;;;;;6118865;23;21335;-81
2022/05/30 03:50:24;;;;;;;4.37;2.07;;;13.00;97.20;;;;;;6119505;23;20411;-80
2022/05/30 03:52:56;;;;;;;2.63;1.93;;;13.00;97.50;;;;;;6106019;23;20770;-81
2022/05/30 03:55:23;;;;;;;2.90;2.07;;;12.90;97.90;;;;;;6112108;23;21001;-81
2022/05/30 03:57:51;;;;;;;6.80;2.57;;;12.80;98.20;;;;;;6091712;23;20440;-80
2022/05/30 04:00:20;;;;;;;4.83;2.50;;;12.70;98.50;;;;;;6126105;23;20467;-82
2022/05/30 04:02:47;;;;;;;4.37;2.60;;;12.80;98.80;;;;;;6127940;23;20494;-82
2022/05/30 04:05:18;;;;;;;3.40;2.30;;;12.80;98.80;;;;;;6121367;23;20516;-82
2022/05/30 04:07:45;;;;;;;3.87;3.10;;;12.80;98.60;;;;;;6116943;23;20970;-82
2022/05/30 04:10:12;;;;;;;4.40;2.83;;;12.80;98.60;;;;;;6117660;23;20818;-83
2022/05/30 04:12:39;;;;;;;7.73;3.00;;;12.80;98.60;;;;;;6098122;23;20444;-82
2022/05/30 04:15:10;;;;;;;11.00;4.43;;;12.80;98.50;;;;;;6044107;23;20403;-83
2022/05/30 04:17:37;;;;;;;6.13;3.00;;;12.70;98.40;;;;;;6090552;23;20443;-81
2022/05/30 04:20:05;;;;;;;9.13;3.10;;;12.90;98.60;;;;;;6120557;23;20413;-83
2022/05/30 04:22:33;;;;;;;6.20;2.97;;;13.10;98.30;;;;;;6087169;23;20939;-82
2022/05/30 04:25:00;;;;;;;9.90;3.20;;;13.00;98.10;;;;;;6111684;23;20416;-83
2022/05/30 04:27:27;;;;;;;5.70;2.87;;;13.00;98.20;;;;;;6114037;23;20438;-82
2022/05/30 04:29:53;;;;;;;4.23;2.60;;;13.00;98.20;;;;;;6114110;23;20415;-82
2022/05/30 04:32:22;;;;;;;6.40;3.23;;;12.90;98.00;;;;;;6115225;23;20439;-83
2022/05/30 04:34:49;;;;;;;4.67;2.53;;;12.80;97.80;;;;;;6117102;23;20420;-82
2022/05/30 04:37:16;;;;;;;5.57;2.30;;;13.00;98.00;;;;;;6089970;23;20426;-84
2022/05/30 04:39:42;;;;;;;5.13;2.70;;;13.00;98.00;;;;;;6114882;23;20427;-82
2022/05/30 04:42:09;;;;;;;4.70;2.27;;;13.10;98.00;;;;;;6114653;23;20419;-82
2022/05/30 04:44:42;;;;;;;6.77;4.03;;;13.50;97.40;;;;;;6089934;23;20404;-84
2022/05/30 04:47:11;;;;;;;5.50;2.90;;;13.60;96.70;;;;;;6114187;23;21350;-82
2022/05/30 04:49:45;;;;;;;5.33;2.43;;;13.50;96.50;;;;;;6116229;23;20850;-83
2022/05/30 04:52:12;;;;;;;5.33;2.50;;;13.50;96.60;;;;;;6089733;23;20665;-84
2022/05/30 04:54:39;;;;;;;11.40;3.17;;;13.30;96.60;;;;;;6115129;23;20412;-84
2022/05/30 04:57:07;;;;;;;6.50;2.57;;;13.20;96.90;;;;;;6120018;23;20431;-81
2022/05/30 04:59:34;;;;;;;7.00;2.97;;;13.30;97.00;;;;;;6116468;23;20514;-83
2022/05/30 05:02:00;;;;;;;6.20;2.80;;;13.30;97.10;;;;;;6116589;23;20415;-84
2022/05/30 05:04:27;;;;;;;7.20;2.67;;;13.70;96.30;;;;;;6118073;23;20402;-81
2022/05/30 05:06:54;;;;;;;6.67;3.07;;;13.60;96.10;;;;;;6118825;23;20533;-82
2022/05/30 05:09:45;;;;;;;5.57;2.57;;;13.70;95.80;;;;;;6090774;23;20424;-82
2022/05/30 05:12:12;;;;;;;4.67;2.53;;;13.80;95.60;;;;;;6100280;23;20426;-83
2022/05/30 05:14:38;;;;;;;6.30;3.07;;;13.60;95.70;;;;;;6097642;23;20404;-81
2022/05/30 05:17:06;;;;;;;6.57;2.67;;;13.30;95.90;;;;;;6123542;23;20392;-81
2022/05/30 05:19:34;;;;;;;5.17;2.80;;;13.20;96.20;;;;;;6132004;23;20428;-81
2022/05/30 05:22:01;;;;;;;7.03;3.20;;;13.20;96.50;;;;;;6108697;23;20438;-82
2022/05/30 05:24:27;;;;;;;5.20;2.97;;;13.40;96.70;;;;;;6127145;23;20416;-82
2022/05/30 05:26:54;;;;;;;7.10;3.07;;;13.50;96.30;;;;;;6103774;23;20426;-81
2022/05/30 05:29:21;;;;;;;6.20;3.23;;;13.80;95.30;;;;;;6107574;23;20445;-84
2022/05/30 05:31:48;;;;;;;7.37;3.30;;;13.80;95.00;;;;;;6135477;23;20515;-84
2022/05/30 05:34:16;;;;;;;6.60;2.83;;;13.90;94.70;;;;;;6134544;23;20408;-83
2022/05/30 05:36:47;;;;;;;4.53;3.60;;;13.90;94.50;;;;;;6109027;23;20454;-84
2022/05/30 05:39:16;;;;;;;9.00;2.90;;;13.70;94.50;;;;;;6109386;23;20435;-82
2022/05/30 05:41:46;;;;;;;6.93;3.13;;;13.60;94.90;;;;;;6135060;23;20475;-82
2022/05/30 05:44:15;;;;;;;3.87;2.50;;;13.60;95.40;;;;;;6105948;23;20499;-80
2022/05/30 05:46:42;;;;;;;7.30;3.33;;;13.70;95.30;;;;;;6111139;23;20479;-80
2022/05/30 05:49:09;;;;;;;8.47;3.87;;;13.60;94.60;;;;;;6135319;23;20623;-80
2022/05/30 05:51:37;;;;;;;6.30;2.50;;;13.40;94.80;;;;;;6136064;23;20395;-83
2022/05/30 05:54:05;;;;;;;7.73;2.93;;;13.50;95.30;;;;;;6137276;23;20451;-80
2022/05/30 05:56:32;;;;;;;7.43;3.07;;;13.60;95.30;;;;;;6136984;23;20455;-81
2022/05/30 05:59:00;;;;;;;6.17;2.70;;;13.50;95.00;;;;;;6135626;23;20424;-81
2022/05/30 06:01:30;;;;;;;8.97;3.00;;;13.50;94.70;;;;;;6138468;23;20403;-82
2022/05/30 06:04:03;;;;;;;7.90;2.67;;;13.40;94.60;;;;;;6138094;23;20392;-83
2022/05/30 06:06:30;;;;;;;8.93;3.00;;;13.60;94.60;;;;;;6112993;23;20372;-82
2022/05/30 06:09:04;;;;;;;7.80;3.30;;;13.90;94.00;;;;;;6137839;23;20435;-81
2022/05/30 06:11:32;;;;;;;7.67;3.40;;;14.00;93.10;;;;;;6110978;23;20414;-81
2022/05/30 06:13:59;;;;;;;9.57;4.20;;;14.10;93.40;;;;;;6110835;23;20444;-81
2022/05/30 06:16:30;;;;;;;12.63;4.30;;;14.10;93.30;;;;;;6135657;23;20406;-81
2022/05/30 06:18:59;;;;;;;5.33;3.80;;;14.10;93.50;;;;;;6110534;23;20459;-81
2022/05/30 06:21:28;;;;;;;6.73;3.50;;;14.20;93.40;;;;;;6101349;23;20400;-84
2022/05/30 06:23:56;;;;;;;7.40;3.70;;;14.30;93.20;;;;;;6115079;23;20415;-81
2022/05/30 06:26:23;;;;;;;9.30;3.63;;;14.00;93.30;;;;;;6116993;23;20407;-83
2022/05/30 06:28:51;;;;;;;3.67;3.20;;;13.80;93.70;;;;;;6118032;23;20439;-82
2022/05/30 06:31:24;;;;;;;17.40;5.57;;;13.80;94.10;;;;;;6120928;23;20412;-83
2022/05/30 06:33:53;;;;;;;5.27;4.77;;;14.00;94.10;;;;;;6118636;23;20815;-84
2022/05/30 06:36:22;;;;;;;7.87;4.57;;;14.10;93.80;;;;;;6118103;23;20404;-82
2022/05/30 06:38:50;;;;;;;6.40;5.07;;;14.10;93.50;;;;;;6091754;23;20435;-81
2022/05/30 06:41:19;;;;;;;7.33;4.33;;;14.30;93.60;;;;;;6116256;23;20400;-81
2022/05/30 06:43:57;;;;;;;7.77;4.20;;;14.40;93.10;;;;;;6094421;23;20898;-81
2022/05/30 06:46:24;;;;;;;12.73;5.30;;;14.20;93.30;;;;;;6119035;23;20431;-81
2022/05/30 06:48:54;;;;;;;5.13;4.57;;;14.20;93.30;;;;;;6094652;23;20446;-82
2022/05/30 06:51:24;;;;;;;5.10;4.17;;;14.30;93.20;;;;;;6132416;23;20392;-80
2022/05/30 06:53:52;;;;;;;5.90;3.77;;;14.20;93.20;;;;;;6128760;23;20447;-82
2022/05/30 06:56:27;;;;;;;11.77;4.97;;;14.00;93.50;;;;;;6118216;23;20414;-84
2022/05/30 06:58:55;;;;;;;7.03;3.80;;;14.20;93.80;;;;;;6118292;23;20431;-83
2022/05/30 07:01:25;;;;;;;8.80;4.47;;;14.20;93.40;;;;;;6118129;23;20444;-83
2022/05/30 07:03:52;;;;;;;8.37;4.33;;;14.40;92.90;;;;;;6122237;23;20426;-83
2022/05/30 07:06:23;;;;;;;10.17;5.80;;;14.10;93.30;;;;;;6092148;23;20915;-84
2022/05/30 07:08:49;;;;;;;10.43;5.43;;;14.10;93.30;;;;;;6118073;23;20428;-84
2022/05/30 07:11:19;;;;;;;7.37;5.07;;;13.70;93.50;;;;;;6116136;23;20526;-83
2022/05/30 07:13:46;;;;;;;8.20;4.97;;;13.50;94.30;;;;;;6116584;23;20424;-81
2022/05/30 07:16:13;;;;;;;13.63;6.57;;;13.60;94.90;;;;;;6119106;23;20412;-83
2022/05/30 07:18:40;;;;;;;7.90;5.40;;;13.50;94.80;;;;;;6116215;23;20510;-82
2022/05/30 07:21:08;;;;;;;7.77;5.53;;;13.50;95.00;;;;;;6116198;23;20422;-83
2022/05/30 07:23:37;;;;;;;9.00;5.10;;;13.70;94.80;;;;;;6116723;23;20412;-83
2022/05/30 07:26:08;;;;;;;6.93;5.20;;;13.80;94.60;;;;;;6091201;23;20418;-82
2022/05/30 07:28:35;;;;;;;10.30;6.00;;;13.80;94.60;;;;;;6116905;23;20462;-81
2022/05/30 07:31:04;;;;;;;9.00;5.67;;;13.80;94.60;;;;;;6118464;23;21087;-83
2022/05/30 07:33:32;;;;;;;6.60;5.30;;;13.90;94.60;;;;;;6095285;23;20527;-84
2022/05/30 07:35:59;;;;;;;9.73;6.10;;;13.90;94.60;;;;;;6093044;23;20404;-84
2022/05/30 07:38:29;;;;;;;6.57;5.20;;;13.90;94.30;;;;;;6117206;23;20526;-83
2022/05/30 07:41:03;;;;;;;7.03;5.83;;;13.90;93.80;;;;;;6093317;23;20400;-82
2022/05/30 07:43:30;;;;;;;11.10;5.73;;;14.20;93.40;;;;;;6092043;23;20860;-84
2022/05/30 07:46:06;;;;;;;9.00;5.23;;;14.60;92.60;;;;;;6093788;23;20415;-82
2022/05/30 07:48:34;;;;;;;9.17;5.40;;;14.80;92.30;;;;;;6119788;23;20461;-83
2022/05/30 07:51:02;;;;;;;12.33;7.80;;;14.90;92.10;;;;;;6118472;23;20412;-84
2022/05/30 07:53:29;;;;;;;7.93;7.13;;;14.90;91.50;;;;;;6091302;23;20439;-84
2022/05/30 07:55:58;;;;;;;10.53;5.20;;;14.80;91.10;;;;;;6091804;23;20398;-84
2022/05/30 07:58:25;;;;;;;8.23;4.57;;;14.70;91.00;;;;;;6090935;23;20447;-82
2022/05/30 08:00:52;;;;;;;8.33;4.10;;;14.40;91.40;;;;;;6118555;23;20415;-83
2022/05/30 08:03:20;;;;;;;11.70;4.23;;;14.20;91.80;;;;;;6123284;23;20447;-83
2022/05/30 08:05:47;;;;;;;8.73;4.40;;;14.00;92.10;;;;;;6093611;23;20399;-82
2022/05/30 08:08:15;;;;;;;6.30;3.63;;;14.30;92.50;;;;;;6117983;23;20423;-84
2022/05/30 08:10:42;;;;;;;9.63;3.93;;;14.80;90.90;;;;;;6094474;23;20475;-84
2022/05/30 08:13:08;;;;;;;8.57;3.83;;;14.90;90.10;;;;;;6094251;23;20461;-83
2022/05/30 08:15:35;;;;;;;9.50;4.47;;;14.90;89.50;;;;;;6119581;23;20388;-84
2022/05/30 08:18:02;;;;;;;8.30;3.50;;;14.80;89.70;;;;;;6120411;23;20432;-82
2022/05/30 08:20:31;;;;;;;4.60;3.13;;;14.60;90.20;;;;;;6123327;23;20380;-84
2022/05/30 08:23:00;;;;;;;3.70;2.93;;;14.50;89.30;;;;;;6115949;23;20408;-84
2022/05/30 08:25:27;;;;;;;5.10;2.97;;;14.70;89.00;;;;;;6116696;23;20418;-83
2022/05/30 08:27:54;;;;;;;6.50;3.10;;;14.80;88.60;;;;;;6116013;23;20435;-81
2022/05/30 08:30:21;;;;;;;7.83;3.50;;;14.70;88.20;;;;;;6115713;23;20415;-82
2022/05/30 08:32:48;;;;;;;5.33;3.00;;;14.60;88.80;;;;;;6115657;23;20443;-82
2022/05/30 08:35:18;;;;;;;3.77;3.20;;;14.60;89.90;;;;;;6119241;23;20407;-81
2022/05/30 08:37:46;;;;;;;7.40;3.00;;;14.50;89.60;;;;;;6117489;23;20455;-84
2022/05/30 08:43:24;;;;;;;8.33;3.23;;;14.60;88.50;;;;;;6118206;23;20503;-85
2022/05/30 08:46:18;;;;;;;9.30;3.57;;;14.70;89.20;;;;;;6131784;23;20423;-82
2022/05/30 08:49:10;;;;;;;4.17;3.00;;;15.10;88.40;;;;;;6046148;23;20552;-82
2022/05/30 08:52:27;;;;;;;5.93;3.33;;;15.20;86.00;;;;;;6117565;23;20396;-84
2022/05/30 08:55:02;;;;;;;8.20;4.00;;;14.90;85.30;;;;;;6061894;23;20434;-82
2022/05/30 08:57:37;;;;;;;12.20;5.20;;;14.90;87.60;;;;;;6117802;23;20404;-83
2022/05/30 09:00:26;;;;;;;5.43;4.40;;;15.00;88.80;;;;;;6115330;23;20441;-81
2022/05/30 09:03:05;;;;;;;6.57;4.40;;;15.30;88.90;;;;;;6092297;23;20444;-84
2022/05/30 09:05:37;;;;;;;5.47;4.30;;;15.30;88.60;;;;;;6118620;23;20467;-83
2022/05/30 09:08:57;;;;;;;9.13;4.83;;;15.10;87.70;;;;;;6096170;23;20439;-83
2022/05/30 09:11:38;;;;;;;7.30;4.87;;;15.30;86.20;;;;;;6111113;23;20425;-82
2022/05/30 09:14:19;;;;;;;8.23;4.40;;;16.20;87.50;;;;;;6119551;23;20428;-82
2022/05/30 09:16:55;;;;;;;7.73;4.67;;;17.50;82.90;;;;;;6117662;23;20418;-82
2022/05/30 09:19:24;;;;;;;16.60;4.60;;;18.40;77.60;;;;;;6120583;23;20444;-84
2022/05/30 09:21:54;;;;;;;6.33;4.00;;;18.80;76.40;;;;;;6093771;23;20412;-83
2022/05/30 09:24:21;;;;;;;5.87;4.43;;;19.90;72.30;;;;;;6122459;23;20404;-81
2022/05/30 09:26:51;;;;;;;10.03;4.87;;;19.50;70.00;;;;;;6119586;23;20411;-83
2022/05/30 09:29:27;;;;;;;9.07;4.80;;;19.10;70.50;;;;;;6119308;23;20448;-85
2022/05/30 09:31:57;;;;;;;6.57;4.47;;;18.60;71.90;;;;;;6096997;23;20404;-83
2022/05/30 09:34:52;;;;;;;7.30;5.07;;;18.30;71.70;;;;;;6123203;23;20428;-82
2022/05/30 09:37:33;;;;;;;7.57;4.57;;;17.50;72.50;;;;;;6117378;23;20903;-83
2022/05/30 09:40:00;;;;;;;7.43;4.70;;;17.20;74.70;;;;;;6128623;23;20415;-85
2022/05/30 09:42:33;;;;;;;7.97;4.10;;;17.30;74.30;;;;;;6128099;23;20465;-84
2022/05/30 09:45:28;;;;;;;5.87;3.47;;;16.80;75.20;;;;;;6109596;23;20414;-83
2022/05/30 09:48:02;;;;;;;7.03;3.90;;;16.60;77.10;;;;;;6140132;23;20439;-83
2022/05/30 09:50:29;;;;;;;7.67;4.03;;;16.60;76.50;;;;;;6144411;23;20762;-81
2022/05/30 09:52:56;;;;;;;5.13;3.70;;;16.60;76.10;;;;;;6145009;23;20543;-82
2022/05/30 09:55:27;;;;;;;6.13;3.90;;;16.40;75.40;;;;;;6144330;23;20731;-82
2022/05/30 09:57:59;;;;;;;4.70;3.73;;;16.10;76.30;;;;;;6139786;23;20457;-82
2022/05/30 10:00:36;;;;;;;8.53;4.00;;;15.90;76.60;;;;;;6122124;23;20464;-83
2022/05/30 10:03:26;;;;;;;5.07;4.10;;;15.50;77.40;;;;;;6090759;23;20495;-84
2022/05/30 10:06:13;;;;;;;4.33;3.27;;;15.40;79.00;;;;;;6116596;23;20439;-83
2022/05/30 10:08:41;;;;;;;7.83;3.93;;;15.60;78.90;;;;;;6131693;23;20426;-83
2022/05/30 10:11:09;;;;;;;7.70;3.33;;;16.00;77.10;;;;;;6091185;23;20415;-84
2022/05/30 10:13:41;;;;;;;7.30;4.27;;;15.70;78.10;;;;;;6091716;23;20447;-82
2022/05/30 10:16:14;;;;;;;8.37;3.80;;;15.90;79.10;;;;;;6093996;23;21008;-81
2022/05/30 10:18:55;;;;;;;6.37;3.40;;;15.90;79.40;;;;;;6097857;23;20876;-83
2022/05/30 10:21:37;;;;;;;5.70;3.70;;;15.60;80.70;;;;;;6093614;23;20392;-83
2022/05/30 10:30:19;;;;;;;6.30;3.00;;;15.80;77.60;;;;;;6123927;23;20427;-83
2022/05/30 10:33:09;;;;;;;5.73;2.67;;;15.60;75.80;;;;;;6120411;23;20460;-83
2022/05/30 10:36:09;;;;;;;4.13;2.87;;;15.40;76.20;;;;;;6121641;23;20443;-83
2022/05/30 10:38:38;;;;;;;3.33;3.03;;;15.30;76.60;;;;;;6093597;23;20440;-83
2022/05/30 10:41:11;;;;;;;3.67;2.83;;;15.30;77.20;;;;;;6117252;23;20895;-83
2022/05/30 10:44:09;;;;;;;4.33;2.90;;;15.40;77.00;;;;;;6119307;23;20410;-84
2022/05/30 10:47:00;;;;;;;6.47;3.10;;;15.40;76.20;;;;;;6092439;23;20403;-84
2022/05/30 10:49:34;;;;;;;5.50;3.00;;;15.50;76.20;;;;;;6116289;23;20436;-82
2022/05/30 10:52:07;;;;;;;6.23;3.10;;;16.30;74.50;;;;;;6117773;23;20423;-82
2022/05/30 10:54:43;;;;;;;3.37;2.90;;;16.60;72.00;;;;;;6120813;23;20447;-84
2022/05/30 10:57:22;;;;;;;3.20;2.80;;;16.60;71.90;;;;;;6096554;23;20396;-84
2022/05/30 10:59:57;;;;;;;4.80;2.90;;;16.50;73.50;;;;;;6117835;23;20396;-83
2022/05/30 11:02:58;;;;;;;5.07;3.30;;;17.00;72.20;;;;;;6096144;23;20395;-83
2022/05/30 11:05:41;;;;;;;4.00;2.80;;;17.50;68.80;;;;;;6127843;23;20406;-84
2022/05/30 11:08:49;;;;;;;5.40;3.63;;;18.00;66.00;;;;;;6136570;23;20431;-83
2022/05/30 11:11:23;;;;;;;3.60;2.50;;;18.50;65.70;;;;;;6119266;23;20932;-82
2022/05/30 11:13:59;;;;;;;3.33;2.40;;;18.40;64.00;;;;;;6125368;23;20450;-85
2022/05/30 11:16:46;;;;;;;4.53;2.30;;;18.50;61.50;;;;;;6128733;23;20398;-81
2022/05/30 11:19:50;;;;;;;3.77;2.20;;;18.70;59.80;;;;;;6134456;23;20431;-82
2022/05/30 11:22:43;;;;;;;3.83;2.30;;;18.70;58.80;;;;;;6106920;23;21220;-82
2022/05/30 11:25:14;;;;;;;2.93;2.00;;;19.10;59.40;;;;;;6102900;23;20499;-84
2022/05/30 11:28:02;;;;;;;4.90;2.50;;;19.00;59.60;;;;;;6101998;23;20518;-82
2022/05/30 11:31:02;;;;;;;4.93;2.50;;;19.50;59.70;;;;;;6049535;23;20510;-81
2022/05/30 11:33:48;;;;;;;4.70;3.20;;;20.40;57.80;;;;;;6096056;23;20548;-84
2022/05/30 11:36:37;;;;;;;4.73;2.23;;;20.20;56.60;;;;;;6120597;23;20403;-83
2022/05/30 11:39:26;;;;;;;4.17;2.50;;;20.10;55.90;;;;;;6122385;23;20438;-83
2022/05/30 11:42:30;;;;;;;3.73;2.70;;;19.70;55.30;;;;;;6118714;23;20419;-82
2022/05/30 11:45:02;;;;;;;3.77;1.90;;;19.30;56.40;;;;;;6116923;23;20420;-83
2022/05/30 11:47:56;;;;;;;3.60;2.87;;;19.00;55.30;;;;;;6116353;23;20422;-83
2022/05/30 11:50:33;;;;;;;2.73;2.50;;;18.90;56.60;;;;;;6117666;23;20422;-84
2022/05/30 11:53:02;;;;;;;5.43;3.00;;;19.00;56.00;;;;;;6119734;23;20425;-85
2022/05/30 11:56:18;;;;;;;3.20;2.80;;;18.50;55.20;;;;;;6116498;23;20742;-84
2022/05/30 11:59:11;;;;;;;6.50;4.03;;;18.20;56.60;;;;;;6076828;23;20475;-84
2022/05/30 12:01:42;;;;;;;3.67;3.37;;;18.40;56.10;;;;;;6117483;23;20392;-82
2022/05/30 12:04:23;;;;;;;3.97;3.30;;;18.60;55.40;;;;;;6090325;23;20451;-83
2022/05/30 12:07:07;;;;;;;5.43;3.93;;;18.50;55.10;;;;;;6119662;23;20478;-83
2022/05/30 12:10:02;;;;;;;4.30;3.90;;;18.20;55.40;;;;;;6115226;23;20447;-84
2022/05/30 12:12:54;;;;;;;6.60;3.80;;;17.90;55.80;;;;;;6115948;23;20400;-84
2022/05/30 12:15:56;;;;;;;6.60;4.10;;;17.50;56.30;;;;;;6115315;23;20446;-82
2022/05/30 12:24:40;;;;;;;5.17;3.40;;;17.90;57.20;;;;;;6116237;23;20416;-84
2022/05/30 12:27:34;;;;;;;6.90;3.40;;;18.00;59.10;;;;;;6116176;23;20479;-83
2022/05/30 12:30:05;;;;;;;5.50;3.23;;;18.00;62.10;;;;;;6090433;23;20416;-84
2022/05/30 12:32:36;;;;;;;3.97;3.50;;;17.60;62.60;;;;;;6087035;23;20919;-83
2022/05/30 12:35:21;;;;;;;6.10;3.97;;;17.20;64.70;;;;;;6062205;23;20454;-84
2022/05/30 12:38:08;;;;;;;4.77;3.40;;;16.90;65.20;;;;;;6062525;23;20433;-83
2022/05/30 12:40:41;;;;;;;4.43;3.23;;;17.20;63.60;;;;;;6063296;23;20939;-84
2022/05/30 12:43:23;;;;;;;5.77;3.53;;;17.20;63.10;;;;;;6091957;23;20409;-82
2022/05/30 12:45:56;;;;;;;10.30;4.13;;;17.00;63.40;;;;;;6090669;23;20385;-83
2022/05/30 12:48:38;;;;;;;5.77;3.53;;;17.20;64.60;;;;;;6088019;23;20511;-85
2022/05/30 12:51:29;;;;;;;6.23;4.50;;;17.30;63.50;;;;;;6088855;23;20395;-84
2022/05/30 12:53:57;;;;;;;6.27;3.70;;;17.10;62.70;;;;;;6087793;23;20492;-84
2022/05/30 12:56:47;;;;;;;6.07;3.87;;;16.90;64.00;;;;;;6087525;23;20416;-84
2022/05/30 12:59:19;;;;;;;6.63;4.00;;;16.80;63.90;;;;;;6091607;23;20437;-83
2022/05/30 13:01:45;;;;;;;5.00;4.10;;;16.70;64.10;;;;;;6090272;23;20411;-82
2022/05/30 13:04:15;;;;;;;5.83;3.60;;;16.60;64.30;;;;;;6090281;23;20476;-83
2022/05/30 13:06:44;;;;;;;5.93;3.23;;;16.40;64.50;;;;;;6088015;23;20783;-85
2022/05/30 13:09:35;;;;;;;4.47;3.67;;;16.30;64.50;;;;;;6065144;23;20436;-83
2022/05/30 13:12:11;;;;;;;6.90;4.23;;;16.40;63.20;;;;;;6091403;23;20417;-82
2022/05/30 13:15:05;;;;;;;8.17;3.60;;;16.70;61.70;;;;;;6089531;23;20448;-83
2022/05/30 13:17:48;;;;;;;7.63;4.07;;;16.80;60.40;;;;;;6095457;23;21059;-85
2022/05/30 13:20:20;;;;;;;3.70;3.40;;;16.80;60.60;;;;;;6090789;23;20479;-83
2022/05/30 13:22:55;;;;;;;4.53;3.47;;;17.20;59.50;;;;;;6091537;23;20404;-83
2022/05/30 13:25:51;;;;;;;5.17;3.60;;;17.20;59.50;;;;;;6065921;23;20400;-86
2022/05/30 13:28:24;;;;;;;3.70;3.40;;;17.70;58.40;;;;;;6075789;23;20449;-81
2022/05/30 13:30:55;;;;;;;4.60;4.20;;;18.00;57.70;;;;;;6120954;23;20784;-85
2022/05/30 13:33:28;;;;;;;4.27;3.63;;;17.70;58.00;;;;;;6120488;23;21088;-84
2022/05/30 13:36:00;;;;;;;3.87;3.07;;;17.80;58.30;;;;;;6097669;23;20444;-85
2022/05/30 13:38:42;;;;;;;4.73;4.17;;;18.00;58.10;;;;;;6124804;23;20508;-84